createdAt,value
2018-02-18T00:00:05.702Z,985.15
2018-02-18T00:01:04.855Z,985.21
2018-02-18T00:02:05.373Z,985.29
2018-02-18T00:03:05.861Z,985.18
2018-02-18T00:04:05.578Z,985.34
2018-02-18T00:05:05.779Z,985.18
2018-02-18T00:06:05.221Z,985.34
2018-02-18T00:07:05.842Z,985.29
2018-02-18T00:08:05.046Z,985.39
2018-02-18T00:09:05.656Z,985.34
2018-02-18T00:10:05.409Z,985.42
2018-02-18T00:11:05.289Z,985.29
2018-02-18T00:12:05.592Z,985.45
2018-02-18T00:13:05.583Z,985.51
2018-02-18T00:14:05.543Z,985.37
2018-02-18T00:15:10.665Z,985.53
2018-02-18T00:16:05.854Z,985.48
2018-02-18T00:17:05.615Z,985.56
2018-02-18T00:18:05.318Z,985.64
2018-02-18T00:19:05.751Z,985.53
2018-02-18T00:20:05.826Z,985.45
2018-02-18T00:21:05.145Z,985.51
2018-02-18T00:22:04.972Z,985.65
2018-02-18T00:23:05.065Z,985.56
2018-02-18T00:24:05.042Z,985.45
2018-02-18T00:25:05.021Z,985.45
2018-02-18T00:26:04.959Z,985.48
2018-02-18T00:27:06.014Z,985.56
2018-02-18T00:28:05.624Z,985.62
2018-02-18T00:29:05.878Z,985.70
2018-02-18T00:30:05.497Z,985.67
2018-02-18T00:31:04.968Z,985.56
2018-02-18T00:32:05.606Z,985.62
2018-02-18T00:33:05.487Z,985.62
2018-02-18T00:34:05.228Z,985.56
2018-02-18T00:35:05.351Z,985.65
2018-02-18T00:36:05.070Z,985.59
2018-02-18T00:37:11.015Z,985.65
2018-02-18T00:38:05.730Z,985.65
2018-02-18T00:39:05.407Z,985.51
2018-02-18T00:40:05.493Z,985.65
2018-02-18T00:41:05.163Z,985.45
2018-02-18T00:42:05.588Z,985.59
2018-02-18T00:43:10.502Z,985.62
2018-02-18T00:44:05.782Z,985.59
2018-02-18T00:45:06.251Z,985.62
2018-02-18T00:46:05.222Z,985.67
2018-02-18T00:47:05.628Z,985.76
2018-02-18T00:48:05.145Z,985.73
2018-02-18T00:49:05.666Z,985.78
2018-02-18T00:50:05.479Z,985.67
2018-02-18T00:51:05.559Z,985.62
2018-02-18T00:52:05.010Z,985.78
2018-02-18T00:53:04.857Z,985.65
2018-02-18T00:54:05.980Z,985.62
2018-02-18T00:55:05.801Z,985.78
2018-02-18T00:56:05.262Z,985.67
2018-02-18T00:57:05.723Z,985.73
2018-02-18T00:58:05.125Z,985.81
2018-02-18T00:59:05.747Z,985.78
2018-02-18T01:00:10.242Z,985.78
2018-02-18T01:01:05.062Z,985.67
2018-02-18T01:02:05.354Z,985.84
2018-02-18T01:03:04.897Z,985.95
2018-02-18T01:04:05.634Z,985.70
2018-02-18T01:05:05.428Z,985.73
2018-02-18T01:06:05.313Z,985.76
2018-02-18T01:07:05.658Z,985.84
2018-02-18T01:08:06.826Z,985.73
2018-02-18T01:09:09.914Z,985.81
2018-02-18T01:10:05.748Z,985.73
2018-02-18T01:11:05.211Z,985.81
2018-02-18T01:12:05.933Z,986.01
2018-02-18T01:13:06.337Z,985.95
2018-02-18T01:14:05.494Z,985.70
2018-02-18T01:15:06.228Z,985.84
2018-02-18T01:16:05.325Z,985.81
2018-02-18T01:17:05.341Z,985.73
2018-02-18T01:18:04.951Z,985.95
2018-02-18T01:19:05.542Z,986.06
2018-02-18T01:20:05.834Z,985.95
2018-02-18T01:21:05.790Z,986.06
2018-02-18T01:22:05.019Z,986.04
2018-02-18T01:23:05.102Z,985.81
2018-02-18T01:24:05.641Z,986.04
2018-02-18T01:25:05.845Z,986.04
2018-02-18T01:26:05.687Z,985.95
2018-02-18T01:27:05.419Z,985.98
2018-02-18T01:28:05.656Z,985.90
2018-02-18T01:29:05.822Z,985.95
2018-02-18T01:30:05.848Z,985.93
2018-02-18T01:31:05.115Z,986.04
2018-02-18T01:32:06.105Z,986.09
2018-02-18T01:33:06.053Z,985.98
2018-02-18T01:34:05.705Z,985.93
2018-02-18T01:35:05.392Z,985.98
2018-02-18T01:36:05.477Z,985.95
2018-02-18T01:37:05.618Z,986.01
2018-02-18T01:38:05.616Z,986.01
2018-02-18T01:39:10.982Z,986.15
2018-02-18T01:40:05.863Z,986.21
2018-02-18T01:41:05.312Z,986.12
2018-02-18T01:42:06.300Z,985.98
2018-02-18T01:43:05.608Z,986.09
2018-02-18T01:44:05.251Z,986.04
2018-02-18T01:45:05.333Z,986.18
2018-02-18T01:46:05.060Z,986.18
2018-02-18T01:47:05.444Z,986.12
2018-02-18T01:48:05.699Z,986.12
2018-02-18T01:49:09.937Z,986.04
2018-02-18T01:50:06.004Z,986.10
2018-02-18T01:51:05.701Z,985.98
2018-02-18T01:52:05.028Z,986.07
2018-02-18T01:53:05.254Z,985.98
2018-02-18T01:54:05.011Z,986.04
2018-02-18T01:55:05.816Z,986.07
2018-02-18T01:56:05.590Z,986.10
2018-02-18T01:57:05.260Z,986.07
2018-02-18T01:58:05.072Z,986.15
2018-02-18T01:59:05.547Z,986.07
2018-02-18T02:00:05.354Z,986.09
2018-02-18T02:01:06.016Z,986.04
2018-02-18T02:02:05.454Z,986.23
2018-02-18T02:03:05.279Z,986.09
2018-02-18T02:04:05.278Z,986.10
2018-02-18T02:05:05.847Z,986.10
2018-02-18T02:06:05.140Z,985.98
2018-02-18T02:07:05.197Z,986.10
2018-02-18T02:08:05.354Z,986.10
2018-02-18T02:09:05.268Z,986.07
2018-02-18T02:10:05.712Z,985.98
2018-02-18T02:11:05.504Z,985.93
2018-02-18T02:12:10.230Z,986.10
2018-02-18T02:13:05.025Z,986.07
2018-02-18T02:14:05.619Z,986.15
2018-02-18T02:15:05.204Z,986.10
2018-02-18T02:16:05.756Z,986.12
2018-02-18T02:17:05.874Z,986.12
2018-02-18T02:18:05.555Z,986.12
2018-02-18T02:19:06.116Z,985.99
2018-02-18T02:20:05.677Z,986.12
2018-02-18T02:21:05.271Z,986.21
2018-02-18T02:22:05.339Z,986.15
2018-02-18T02:23:05.778Z,986.12
2018-02-18T02:24:05.650Z,986.07
2018-02-18T02:25:05.694Z,986.07
2018-02-18T02:26:05.100Z,986.18
2018-02-18T02:27:04.919Z,986.26
2018-02-18T02:28:06.067Z,986.15
2018-02-18T02:29:06.082Z,986.21
2018-02-18T02:30:05.074Z,986.21
2018-02-18T02:31:05.794Z,986.15
2018-02-18T02:32:05.540Z,986.29
2018-02-18T02:33:05.398Z,986.21
2018-02-18T02:34:05.049Z,986.15
2018-02-18T02:35:04.963Z,986.10
2018-02-18T02:36:05.725Z,986.18
2018-02-18T02:37:05.171Z,986.21
2018-02-18T02:38:10.069Z,986.21
2018-02-18T02:39:05.186Z,986.15
2018-02-18T02:40:05.915Z,986.04
2018-02-18T02:41:05.494Z,986.21
2018-02-18T02:42:04.990Z,986.21
2018-02-18T02:43:05.099Z,986.15
2018-02-18T02:44:10.417Z,986.12
2018-02-18T02:45:05.348Z,986.10
2018-02-18T02:46:05.996Z,986.10
2018-02-18T02:47:05.903Z,986.29
2018-02-18T02:48:05.472Z,986.21
2018-02-18T02:49:05.251Z,986.37
2018-02-18T02:50:05.012Z,986.21
2018-02-18T02:51:05.654Z,986.07
2018-02-18T02:52:05.780Z,986.15
2018-02-18T02:53:05.846Z,986.29
2018-02-18T02:54:05.956Z,986.18
2018-02-18T02:55:06.007Z,986.15
2018-02-18T02:56:05.692Z,986.21
2018-02-18T02:57:05.466Z,986.21
2018-02-18T02:58:05.695Z,986.21
2018-02-18T02:59:05.718Z,986.35
2018-02-18T03:00:05.309Z,986.34
2018-02-18T03:01:05.001Z,986.37
2018-02-18T03:02:05.847Z,986.26
2018-02-18T03:03:05.298Z,986.12
2018-02-18T03:04:05.998Z,986.18
2018-02-18T03:05:05.090Z,986.23
2018-02-18T03:06:05.152Z,986.29
2018-02-18T03:07:05.581Z,986.32
2018-02-18T03:08:05.329Z,986.29
2018-02-18T03:09:05.742Z,986.18
2018-02-18T03:10:05.537Z,986.20
2018-02-18T03:11:05.323Z,986.20
2018-02-18T03:12:05.597Z,986.12
2018-02-18T03:13:05.869Z,986.15
2018-02-18T03:14:05.631Z,986.23
2018-02-18T03:15:05.420Z,986.15
2018-02-18T03:16:04.975Z,986.07
2018-02-18T03:17:05.486Z,986.20
2018-02-18T03:18:05.804Z,986.18
2018-02-18T03:19:05.295Z,986.06
2018-02-18T03:20:04.882Z,986.23
2018-02-18T03:21:05.511Z,986.07
2018-02-18T03:22:05.255Z,986.12
2018-02-18T03:23:05.202Z,986.12
2018-02-18T03:24:05.082Z,986.04
2018-02-18T03:25:05.275Z,986.26
2018-02-18T03:26:05.781Z,986.07
2018-02-18T03:27:05.665Z,986.07
2018-02-18T03:28:05.008Z,986.04
2018-02-18T03:29:05.658Z,986.12
2018-02-18T03:30:06.660Z,986.26
2018-02-18T03:31:05.753Z,986.12
2018-02-18T03:32:05.292Z,986.07
2018-02-18T03:33:09.991Z,986.12
2018-02-18T03:34:05.242Z,986.12
2018-02-18T03:35:05.681Z,986.18
2018-02-18T03:36:05.325Z,986.18
2018-02-18T03:37:05.714Z,986.20
2018-02-18T03:38:05.159Z,986.23
2018-02-18T03:39:04.940Z,986.20
2018-02-18T03:40:05.876Z,986.40
2018-02-18T03:41:05.336Z,986.15
2018-02-18T03:42:05.019Z,986.18
2018-02-18T03:43:05.676Z,986.23
2018-02-18T03:44:05.267Z,986.26
2018-02-18T03:45:05.146Z,986.32
2018-02-18T03:46:05.655Z,986.26
2018-02-18T03:47:05.885Z,986.15
2018-02-18T03:48:05.712Z,986.26
2018-02-18T03:49:05.196Z,986.29
2018-02-18T03:50:05.535Z,986.23
2018-02-18T03:51:05.352Z,986.23
2018-02-18T03:52:05.078Z,986.18
2018-02-18T03:53:05.760Z,986.18
2018-02-18T03:54:05.390Z,986.18
2018-02-18T03:55:05.485Z,986.29
2018-02-18T03:56:04.946Z,986.18
2018-02-18T03:57:05.658Z,986.29
2018-02-18T03:58:05.092Z,986.32
2018-02-18T03:59:05.915Z,986.34
2018-02-18T04:00:05.763Z,986.37
2018-02-18T04:01:05.257Z,986.48
2018-02-18T04:02:05.217Z,986.34
2018-02-18T04:03:05.725Z,986.43
2018-02-18T04:04:05.185Z,986.34
2018-02-18T04:05:05.751Z,986.26
2018-02-18T04:06:05.197Z,986.32
2018-02-18T04:07:05.021Z,986.34
2018-02-18T04:08:05.000Z,986.34
2018-02-18T04:09:05.885Z,986.48
2018-02-18T04:10:05.268Z,986.32
2018-02-18T04:11:05.775Z,986.43
2018-02-18T04:12:05.532Z,986.32
2018-02-18T04:13:05.108Z,986.23
2018-02-18T04:14:05.440Z,986.32
2018-02-18T04:15:04.916Z,986.26
2018-02-18T04:16:05.737Z,986.32
2018-02-18T04:17:05.365Z,986.32
2018-02-18T04:18:05.959Z,986.34
2018-02-18T04:19:06.174Z,986.32
2018-02-18T04:20:05.732Z,986.26
2018-02-18T04:21:05.219Z,986.34
2018-02-18T04:22:05.236Z,986.29
2018-02-18T04:23:05.697Z,986.12
2018-02-18T04:24:05.560Z,986.29
2018-02-18T04:25:05.087Z,986.40
2018-02-18T04:26:05.271Z,986.23
2018-02-18T04:27:05.846Z,986.23
2018-02-18T04:28:05.780Z,986.40
2018-02-18T04:29:05.465Z,986.34
2018-02-18T04:30:04.994Z,986.29
2018-02-18T04:31:10.590Z,986.20
2018-02-18T04:32:05.401Z,986.23
2018-02-18T04:33:05.669Z,986.18
2018-02-18T04:34:05.051Z,986.43
2018-02-18T04:35:10.418Z,986.29
2018-02-18T04:36:05.448Z,986.34
2018-02-18T04:37:05.134Z,986.37
2018-02-18T04:38:05.214Z,986.40
2018-02-18T04:39:05.101Z,986.26
2018-02-18T04:40:05.666Z,986.43
2018-02-18T04:41:05.522Z,986.54
2018-02-18T04:42:05.693Z,986.34
2018-02-18T04:43:10.528Z,986.34
2018-02-18T04:44:05.257Z,986.34
2018-02-18T04:45:09.938Z,986.37
2018-02-18T04:46:05.944Z,986.43
2018-02-18T04:47:04.976Z,986.37
2018-02-18T04:48:06.163Z,986.43
2018-02-18T04:49:05.868Z,986.34
2018-02-18T04:50:05.633Z,986.26
2018-02-18T04:51:05.448Z,986.29
2018-02-18T04:52:04.941Z,986.34
2018-02-18T04:53:05.062Z,986.23
2018-02-18T04:54:05.329Z,986.29
2018-02-18T04:55:05.252Z,986.29
2018-02-18T04:56:05.588Z,986.34
2018-02-18T04:57:05.132Z,986.34
2018-02-18T04:58:05.596Z,986.54
2018-02-18T04:59:10.384Z,986.40
2018-02-18T05:00:05.448Z,986.37
2018-02-18T05:01:05.460Z,986.40
2018-02-18T05:02:04.908Z,986.43
2018-02-18T05:03:05.768Z,986.40
2018-02-18T05:04:05.789Z,986.46
2018-02-18T05:05:05.221Z,986.37
2018-02-18T05:06:05.084Z,986.40
2018-02-18T05:07:04.977Z,986.34
2018-02-18T05:08:05.089Z,986.43
2018-02-18T05:09:04.920Z,986.34
2018-02-18T05:10:05.602Z,986.37
2018-02-18T05:11:05.060Z,986.54
2018-02-18T05:12:05.561Z,986.51
2018-02-18T05:13:05.011Z,986.43
2018-02-18T05:14:05.550Z,986.56
2018-02-18T05:15:05.451Z,986.54
2018-02-18T05:16:05.948Z,986.70
2018-02-18T05:17:05.500Z,986.56
2018-02-18T05:18:05.273Z,986.67
2018-02-18T05:19:04.986Z,986.67
2018-02-18T05:20:06.087Z,986.70
2018-02-18T05:21:06.484Z,986.67
2018-02-18T05:22:05.772Z,986.81
2018-02-18T05:23:05.070Z,986.61
2018-02-18T05:24:04.938Z,986.56
2018-02-18T05:25:06.054Z,986.56
2018-02-18T05:26:05.167Z,986.70
2018-02-18T05:27:05.128Z,986.72
2018-02-18T05:28:05.574Z,986.78
2018-02-18T05:29:04.917Z,986.75
2018-02-18T05:30:05.701Z,986.67
2018-02-18T05:31:05.106Z,986.78
2018-02-18T05:32:05.421Z,986.72
2018-02-18T05:33:05.342Z,986.67
2018-02-18T05:34:05.004Z,986.64
2018-02-18T05:35:05.826Z,986.75
2018-02-18T05:36:05.099Z,986.84
2018-02-18T05:37:05.496Z,986.86
2018-02-18T05:38:04.994Z,986.72
2018-02-18T05:39:04.835Z,986.70
2018-02-18T05:40:05.749Z,986.72
2018-02-18T05:41:05.128Z,986.81
2018-02-18T05:42:05.697Z,986.78
2018-02-18T05:43:05.095Z,986.64
2018-02-18T05:44:05.968Z,986.86
2018-02-18T05:45:05.667Z,986.81
2018-02-18T05:46:05.440Z,986.86
2018-02-18T05:47:05.106Z,986.97
2018-02-18T05:48:05.209Z,986.84
2018-02-18T05:49:04.851Z,986.84
2018-02-18T05:50:05.337Z,986.92
2018-02-18T05:51:05.153Z,986.78
2018-02-18T05:52:05.258Z,986.95
2018-02-18T05:53:05.059Z,986.89
2018-02-18T05:54:05.338Z,986.78
2018-02-18T05:55:05.819Z,986.72
2018-02-18T05:56:05.587Z,986.89
2018-02-18T05:57:05.627Z,986.86
2018-02-18T05:58:05.291Z,986.72
2018-02-18T05:59:04.927Z,986.89
2018-02-18T06:00:05.462Z,986.92
2018-02-18T06:01:06.006Z,986.81
2018-02-18T06:02:05.660Z,986.89
2018-02-18T06:03:05.759Z,986.86
2018-02-18T06:04:05.736Z,986.89
2018-02-18T06:05:10.354Z,986.86
2018-02-18T06:06:04.988Z,987.00
2018-02-18T06:07:04.956Z,986.95
2018-02-18T06:08:05.932Z,986.92
2018-02-18T06:09:05.487Z,986.86
2018-02-18T06:10:05.242Z,986.87
2018-02-18T06:11:05.023Z,986.89
2018-02-18T06:12:05.557Z,986.98
2018-02-18T06:13:05.341Z,986.89
2018-02-18T06:14:04.906Z,987.09
2018-02-18T06:15:06.906Z,986.89
2018-02-18T06:16:05.030Z,987.03
2018-02-18T06:17:05.066Z,986.95
2018-02-18T06:18:05.217Z,986.89
2018-02-18T06:19:05.965Z,987.09
2018-02-18T06:20:05.081Z,987.03
2018-02-18T06:21:05.656Z,987.00
2018-02-18T06:22:05.402Z,987.03
2018-02-18T06:23:05.113Z,987.00
2018-02-18T06:24:05.727Z,986.98
2018-02-18T06:25:10.491Z,987.06
2018-02-18T06:26:05.738Z,987.12
2018-02-18T06:27:05.594Z,987.06
2018-02-18T06:28:04.922Z,987.14
2018-02-18T06:29:05.752Z,987.09
2018-02-18T06:30:05.598Z,987.09
2018-02-18T06:31:05.147Z,987.06
2018-02-18T06:32:05.670Z,987.20
2018-02-18T06:33:05.500Z,987.06
2018-02-18T06:34:05.794Z,987.17
2018-02-18T06:35:05.837Z,987.06
2018-02-18T06:36:05.663Z,987.14
2018-02-18T06:37:05.772Z,987.20
2018-02-18T06:38:05.357Z,987.20
2018-02-18T06:39:05.585Z,987.31
2018-02-18T06:40:04.832Z,987.03
2018-02-18T06:41:05.535Z,987.20
2018-02-18T06:42:05.681Z,987.12
2018-02-18T06:43:05.570Z,987.20
2018-02-18T06:44:05.371Z,987.28
2018-02-18T06:45:05.162Z,987.23
2018-02-18T06:46:05.796Z,987.28
2018-02-18T06:47:06.842Z,987.25
2018-02-18T06:48:06.074Z,987.14
2018-02-18T06:49:05.548Z,987.28
2018-02-18T06:50:05.596Z,987.25
2018-02-18T06:51:05.125Z,987.25
2018-02-18T06:52:05.442Z,987.31
2018-02-18T06:53:05.660Z,987.23
2018-02-18T06:54:05.706Z,987.31
2018-02-18T06:55:05.832Z,987.11
2018-02-18T06:56:05.312Z,987.25
2018-02-18T06:57:05.603Z,987.22
2018-02-18T06:58:05.318Z,987.36
2018-02-18T06:59:05.162Z,987.34
2018-02-18T07:00:05.622Z,987.39
2018-02-18T07:01:10.363Z,987.25
2018-02-18T07:02:05.042Z,987.25
2018-02-18T07:03:05.927Z,987.28
2018-02-18T07:04:05.852Z,987.36
2018-02-18T07:05:05.225Z,987.28
2018-02-18T07:06:05.108Z,987.25
2018-02-18T07:07:05.721Z,987.25
2018-02-18T07:08:05.365Z,987.39
2018-02-18T07:09:05.644Z,987.39
2018-02-18T07:10:04.956Z,987.45
2018-02-18T07:11:05.562Z,987.31
2018-02-18T07:12:05.601Z,987.36
2018-02-18T07:13:05.796Z,987.39
2018-02-18T07:14:05.815Z,987.42
2018-02-18T07:15:05.863Z,987.33
2018-02-18T07:16:05.530Z,987.47
2018-02-18T07:17:05.557Z,987.28
2018-02-18T07:18:05.413Z,987.36
2018-02-18T07:19:05.778Z,987.39
2018-02-18T07:20:05.023Z,987.30
2018-02-18T07:21:05.746Z,987.39
2018-02-18T07:22:05.338Z,987.47
2018-02-18T07:23:05.747Z,987.25
2018-02-18T07:24:05.501Z,987.39
2018-02-18T07:25:05.788Z,987.33
2018-02-18T07:26:05.072Z,987.39
2018-02-18T07:27:05.375Z,987.41
2018-02-18T07:28:05.546Z,987.33
2018-02-18T07:29:05.654Z,987.50
2018-02-18T07:30:05.643Z,987.47
2018-02-18T07:31:05.593Z,987.58
2018-02-18T07:32:05.870Z,987.44
2018-02-18T07:33:05.422Z,987.39
2018-02-18T07:34:06.058Z,987.58
2018-02-18T07:35:05.378Z,987.55
2018-02-18T07:36:05.018Z,987.66
2018-02-18T07:37:05.416Z,987.52
2018-02-18T07:38:05.563Z,987.58
2018-02-18T07:39:05.495Z,987.47
2018-02-18T07:40:05.135Z,987.52
2018-02-18T07:41:05.181Z,987.52
2018-02-18T07:42:05.496Z,987.61
2018-02-18T07:43:05.093Z,987.30
2018-02-18T07:44:05.000Z,987.47
2018-02-18T07:45:05.193Z,987.49
2018-02-18T07:46:05.599Z,987.49
2018-02-18T07:47:05.519Z,987.44
2018-02-18T07:48:05.442Z,987.41
2018-02-18T07:49:05.777Z,987.58
2018-02-18T07:50:05.667Z,987.49
2018-02-18T07:51:05.068Z,987.49
2018-02-18T07:52:05.020Z,987.41
2018-02-18T07:53:05.551Z,987.49
2018-02-18T07:54:05.443Z,987.41
2018-02-18T07:55:05.196Z,987.47
2018-02-18T07:56:05.705Z,987.41
2018-02-18T07:57:05.471Z,987.58
2018-02-18T07:58:04.905Z,987.58
2018-02-18T07:59:05.690Z,987.41
2018-02-18T08:00:05.095Z,987.52
2018-02-18T08:01:05.068Z,987.35
2018-02-18T08:02:06.096Z,987.55
2018-02-18T08:03:05.539Z,987.58
2018-02-18T08:04:05.276Z,987.46
2018-02-18T08:05:05.337Z,987.38
2018-02-18T08:06:05.408Z,987.55
2018-02-18T08:07:05.902Z,987.55
2018-02-18T08:08:05.129Z,987.41
2018-02-18T08:09:05.839Z,987.55
2018-02-18T08:10:05.689Z,987.60
2018-02-18T08:11:05.608Z,987.57
2018-02-18T08:12:05.604Z,987.49
2018-02-18T08:13:05.329Z,987.55
2018-02-18T08:14:04.942Z,987.52
2018-02-18T08:15:05.864Z,987.32
2018-02-18T08:16:05.884Z,987.46
2018-02-18T08:17:05.640Z,987.41
2018-02-18T08:18:05.070Z,987.57
2018-02-18T08:19:05.649Z,987.41
2018-02-18T08:20:04.993Z,987.38
2018-02-18T08:21:05.436Z,987.38
2018-02-18T08:22:04.920Z,987.57
2018-02-18T08:23:05.480Z,987.49
2018-02-18T08:24:05.138Z,987.46
2018-02-18T08:25:05.123Z,987.52
2018-02-18T08:26:05.632Z,987.49
2018-02-18T08:27:05.152Z,987.40
2018-02-18T08:28:05.004Z,987.43
2018-02-18T08:29:06.016Z,987.54
2018-02-18T08:30:05.387Z,987.49
2018-02-18T08:31:10.072Z,987.49
2018-02-18T08:32:05.169Z,987.49
2018-02-18T08:33:05.569Z,987.51
2018-02-18T08:34:05.617Z,987.51
2018-02-18T08:35:09.996Z,987.57
2018-02-18T08:36:05.115Z,987.46
2018-02-18T08:37:05.004Z,987.65
2018-02-18T08:38:05.477Z,987.48
2018-02-18T08:39:04.939Z,987.51
2018-02-18T08:40:05.183Z,987.54
2018-02-18T08:41:05.672Z,987.57
2018-02-18T08:42:06.008Z,987.46
2018-02-18T08:43:05.622Z,987.48
2018-02-18T08:44:05.529Z,987.43
2018-02-18T08:45:05.685Z,987.32
2018-02-18T08:46:05.141Z,987.43
2018-02-18T08:47:05.033Z,987.43
2018-02-18T08:48:04.917Z,987.31
2018-02-18T08:49:05.885Z,987.34
2018-02-18T08:50:05.391Z,987.43
2018-02-18T08:51:05.396Z,987.45
2018-02-18T08:52:05.048Z,987.37
2018-02-18T08:53:05.725Z,987.45
2018-02-18T08:54:04.885Z,987.37
2018-02-18T08:55:05.263Z,987.54
2018-02-18T08:56:06.138Z,987.48
2018-02-18T08:57:05.046Z,987.59
2018-02-18T08:58:06.496Z,987.37
2018-02-18T08:59:05.116Z,987.48
2018-02-18T09:00:05.592Z,987.45
2018-02-18T09:01:04.952Z,987.48
2018-02-18T09:02:10.685Z,987.53
2018-02-18T09:03:05.660Z,987.59
2018-02-18T09:04:05.191Z,987.62
2018-02-18T09:05:05.825Z,987.59
2018-02-18T09:06:05.332Z,987.59
2018-02-18T09:07:05.220Z,987.62
2018-02-18T09:08:06.034Z,987.45
2018-02-18T09:09:04.982Z,987.51
2018-02-18T09:10:05.790Z,987.42
2018-02-18T09:11:04.924Z,987.53
2018-02-18T09:12:05.871Z,987.59
2018-02-18T09:13:05.258Z,987.42
2018-02-18T09:14:04.985Z,987.53
2018-02-18T09:15:05.184Z,987.59
2018-02-18T09:16:05.105Z,987.56
2018-02-18T09:17:06.005Z,987.61
2018-02-18T09:18:04.945Z,987.50
2018-02-18T09:19:05.341Z,987.53
2018-02-18T09:20:05.380Z,987.58
2018-02-18T09:21:05.852Z,987.61
2018-02-18T09:22:05.727Z,987.56
2018-02-18T09:23:05.700Z,987.53
2018-02-18T09:24:05.596Z,987.47
2018-02-18T09:25:05.965Z,987.64
2018-02-18T09:26:05.236Z,987.61
2018-02-18T09:27:05.238Z,987.53
2018-02-18T09:28:06.697Z,987.66
2018-02-18T09:29:05.177Z,987.58
2018-02-18T09:30:05.771Z,987.61
2018-02-18T09:31:05.787Z,987.58
2018-02-18T09:32:04.975Z,987.61
2018-02-18T09:33:05.837Z,987.49
2018-02-18T09:34:05.881Z,987.72
2018-02-18T09:35:05.777Z,987.61
2018-02-18T09:36:10.076Z,987.58
2018-02-18T09:37:10.163Z,987.80
2018-02-18T09:38:05.103Z,987.77
2018-02-18T09:39:05.012Z,987.74
2018-02-18T09:40:04.886Z,987.74
2018-02-18T09:41:05.584Z,987.83
2018-02-18T09:42:04.959Z,987.63
2018-02-18T09:43:05.447Z,987.71
2018-02-18T09:44:05.178Z,987.60
2018-02-18T09:45:10.242Z,987.88
2018-02-18T09:46:05.166Z,987.82
2018-02-18T09:47:05.842Z,987.74
2018-02-18T09:48:05.793Z,987.71
2018-02-18T09:49:05.703Z,987.82
2018-02-18T09:50:05.439Z,987.74
2018-02-18T09:51:05.192Z,987.68
2018-02-18T09:52:05.469Z,987.82
2018-02-18T09:53:04.923Z,987.77
2018-02-18T09:54:05.973Z,987.95
2018-02-18T09:55:05.705Z,987.77
2018-02-18T09:56:05.429Z,987.88
2018-02-18T09:57:04.949Z,987.63
2018-02-18T09:58:06.030Z,987.76
2018-02-18T09:59:05.625Z,987.85
2018-02-18T10:00:05.161Z,987.79
2018-02-18T10:01:06.057Z,987.71
2018-02-18T10:02:05.016Z,987.79
2018-02-18T10:03:05.847Z,987.92
2018-02-18T10:04:05.551Z,987.85
2018-02-18T10:05:05.161Z,987.85
2018-02-18T10:06:05.242Z,988.01
2018-02-18T10:07:05.667Z,988.03
2018-02-18T10:08:05.193Z,987.79
2018-02-18T10:09:05.780Z,987.82
2018-02-18T10:10:05.151Z,987.85
2018-02-18T10:11:05.648Z,988.09
2018-02-18T10:12:06.210Z,987.98
2018-02-18T10:13:05.116Z,987.95
2018-02-18T10:14:05.256Z,987.98
2018-02-18T10:15:05.802Z,988.00
2018-02-18T10:16:05.671Z,987.95
2018-02-18T10:17:05.472Z,988.00
2018-02-18T10:18:05.678Z,988.12
2018-02-18T10:19:04.946Z,988.00
2018-02-18T10:20:06.249Z,988.00
2018-02-18T10:21:05.448Z,987.84
2018-02-18T10:22:05.012Z,988.00
2018-02-18T10:23:05.445Z,988.03
2018-02-18T10:24:05.858Z,988.00
2018-02-18T10:25:06.025Z,987.92
2018-02-18T10:26:05.437Z,988.14
2018-02-18T10:27:05.076Z,988.00
2018-02-18T10:28:05.750Z,988.09
2018-02-18T10:29:05.267Z,987.92
2018-02-18T10:30:05.541Z,988.11
2018-02-18T10:31:05.262Z,988.11
2018-02-18T10:32:05.264Z,987.97
2018-02-18T10:33:05.014Z,988.11
2018-02-18T10:34:05.349Z,988.00
2018-02-18T10:35:04.931Z,988.09
2018-02-18T10:36:05.554Z,988.00
2018-02-18T10:37:04.870Z,988.03
2018-02-18T10:38:05.828Z,988.06
2018-02-18T10:39:04.943Z,988.09
2018-02-18T10:40:05.619Z,988.09
2018-02-18T10:41:05.745Z,988.25
2018-02-18T10:42:05.438Z,988.09
2018-02-18T10:43:05.699Z,988.03
2018-02-18T10:44:05.384Z,988.09
2018-02-18T10:45:05.592Z,988.23
2018-02-18T10:46:05.687Z,988.03
2018-02-18T10:47:05.791Z,988.09
2018-02-18T10:48:05.133Z,988.11
2018-02-18T10:49:05.735Z,988.03
2018-02-18T10:50:05.369Z,988.11
2018-02-18T10:51:05.113Z,988.03
2018-02-18T10:52:05.768Z,988.03
2018-02-18T10:53:04.949Z,988.06
2018-02-18T10:54:05.327Z,988.14
2018-02-18T10:55:05.264Z,988.03
2018-02-18T10:56:05.788Z,988.08
2018-02-18T10:57:05.280Z,988.17
2018-02-18T10:58:05.947Z,987.97
2018-02-18T10:59:06.095Z,988.11
2018-02-18T11:00:05.629Z,988.08
2018-02-18T11:01:05.481Z,988.00
2018-02-18T11:02:04.916Z,988.05
2018-02-18T11:03:05.240Z,988.00
2018-02-18T11:04:05.538Z,988.00
2018-02-18T11:05:05.929Z,988.03
2018-02-18T11:06:05.035Z,988.00
2018-02-18T11:07:04.935Z,987.94
2018-02-18T11:08:05.636Z,988.05
2018-02-18T11:09:06.816Z,988.00
2018-02-18T11:10:05.256Z,988.00
2018-02-18T11:11:10.296Z,988.08
2018-02-18T11:12:04.998Z,987.91
2018-02-18T11:13:05.658Z,988.03
2018-02-18T11:14:05.602Z,987.91
2018-02-18T11:15:10.695Z,988.05
2018-02-18T11:16:10.717Z,988.00
2018-02-18T11:17:05.222Z,987.94
2018-02-18T11:18:05.154Z,988.00
2018-02-18T11:19:10.137Z,988.05
2018-02-18T11:20:04.904Z,988.00
2018-02-18T11:21:05.005Z,987.91
2018-02-18T11:22:05.332Z,987.94
2018-02-18T11:23:05.665Z,988.00
2018-02-18T11:24:05.331Z,987.84
2018-02-18T11:25:05.609Z,988.11
2018-02-18T11:26:05.768Z,987.78
2018-02-18T11:27:05.275Z,987.91
2018-02-18T11:28:05.483Z,987.84
2018-02-18T11:29:05.072Z,987.84
2018-02-18T11:30:05.889Z,987.97
2018-02-18T11:31:05.687Z,987.84
2018-02-18T11:32:05.022Z,987.94
2018-02-18T11:33:05.098Z,987.81
2018-02-18T11:34:05.796Z,987.81
2018-02-18T11:35:05.852Z,987.94
2018-02-18T11:36:06.010Z,987.97
2018-02-18T11:37:05.903Z,987.94
2018-02-18T11:38:05.460Z,987.81
2018-02-18T11:39:05.829Z,987.97
2018-02-18T11:40:05.520Z,987.94
2018-02-18T11:41:04.919Z,987.94
2018-02-18T11:42:06.012Z,987.91
2018-02-18T11:43:04.958Z,987.86
2018-02-18T11:44:04.930Z,987.91
2018-02-18T11:45:06.048Z,987.86
2018-02-18T11:46:05.482Z,988.05
2018-02-18T11:47:05.149Z,987.94
2018-02-18T11:48:05.418Z,988.05
2018-02-18T11:49:05.238Z,987.97
2018-02-18T11:50:04.902Z,987.86
2018-02-18T11:51:05.863Z,987.86
2018-02-18T11:52:05.514Z,987.94
2018-02-18T11:53:05.938Z,987.97
2018-02-18T11:54:05.493Z,987.94
2018-02-18T11:55:05.243Z,987.97
2018-02-18T11:56:05.360Z,987.91
2018-02-18T11:57:05.249Z,987.86
2018-02-18T11:58:05.686Z,988.03
2018-02-18T11:59:05.446Z,988.03
2018-02-18T12:00:05.838Z,988.11
2018-02-18T12:01:05.531Z,988.00
2018-02-18T12:02:05.762Z,987.97
2018-02-18T12:03:05.262Z,988.00
2018-02-18T12:04:05.954Z,988.00
2018-02-18T12:05:05.745Z,988.08
2018-02-18T12:06:05.346Z,987.91
2018-02-18T12:07:05.579Z,987.91
2018-02-18T12:08:05.520Z,987.83
2018-02-18T12:09:05.495Z,987.91
2018-02-18T12:10:05.120Z,987.94
2018-02-18T12:11:10.724Z,987.81
2018-02-18T12:12:05.416Z,987.86
2018-02-18T12:13:05.771Z,987.69
2018-02-18T12:14:05.080Z,987.94
2018-02-18T12:15:05.207Z,987.86
2018-02-18T12:16:05.551Z,987.94
2018-02-18T12:17:05.193Z,987.80
2018-02-18T12:18:05.603Z,987.96
2018-02-18T12:19:05.300Z,987.78
2018-02-18T12:20:05.236Z,987.78
2018-02-18T12:21:04.947Z,987.80
2018-02-18T12:22:06.413Z,987.75
2018-02-18T12:23:05.374Z,987.58
2018-02-18T12:24:05.821Z,987.66
2018-02-18T12:25:05.362Z,987.66
2018-02-18T12:26:05.639Z,987.55
2018-02-18T12:27:05.279Z,987.55
2018-02-18T12:28:05.036Z,987.69